Terminal Aerodrome Forecast
Issued by NWS

Home | Current Version | Previous Version | Text Only | Print | Product List | Glossary On
Versions: 1 2 3 4 5 6 7 8 9 10 11 12 13 14 15 16 17 18 19 20 21 22 23
000
FTUS43 KABR 021100
TAFATY
TAF
KATY 021124Z 0212/0312 VRB04KT P6SM VCSH BKN090
     FM021500 28005KT P6SM OVC110
     FM021900 28012KT P6SM BKN250
     FM030200 31017KT P6SM SCT250=

USA.gov is the U.S. government's official web portal to all federal, state and local government web resources and services.